Time;durP1;ratioP1;P1;durP2;ratioP2;P2;SDS_P1;SDS_P2;PMS_P1;PMS_P2;Temp;Humidity;BMP_temperature;BMP_pressure;BME280_temperature;BME280_humidity;BME280_pressure;Samples;Min_cycle;Max_cycle;Signal;HPM_P1;HPM_P2
2023/01/22 00:01:44;;;;;;;102.22;70.43;;;26.30;99.90;;;;;;5079954;28;20477;-72
2023/01/22 00:04:11;;;;;;;89.53;68.05;;;26.40;99.90;;;;;;5079005;28;20020;-72
2023/01/22 00:06:37;;;;;;;114.45;81.57;;;26.50;99.90;;;;;;5080970;28;20019;-73
2023/01/22 00:09:04;;;;;;;109.72;82.35;;;26.50;99.90;;;;;;5078794;28;20073;-72
2023/01/22 00:11:30;;;;;;;119.25;84.13;;;26.60;99.90;;;;;;5080546;28;20500;-73
2023/01/22 00:13:57;;;;;;;235.40;172.95;;;26.70;99.90;;;;;;5079770;28;20020;-71
2023/01/22 00:16:23;;;;;;;108.65;70.00;;;26.70;99.90;;;;;;5081492;28;20142;-72
2023/01/22 00:18:50;;;;;;;83.30;54.42;;;26.80;99.90;;;;;;5083117;28;20020;-72
2023/01/22 00:21:17;;;;;;;69.93;39.30;;;26.80;99.90;;;;;;5077165;28;20103;-70
2023/01/22 00:23:43;;;;;;;59.30;37.03;;;26.80;99.90;;;;;;5077589;28;20023;-70
2023/01/22 00:26:12;;;;;;;55.08;34.97;;;26.80;99.90;;;;;;5079924;28;20021;-73
2023/01/22 00:28:41;;;;;;;65.40;36.05;;;26.90;99.90;;;;;;5078541;28;20087;-74
2023/01/22 00:31:11;;;;;;;53.13;35.42;;;26.90;99.90;;;;;;5078858;28;20023;-70
2023/01/22 00:33:38;;;;;;;57.28;38.65;;;27.00;99.90;;;;;;5080198;28;20021;-68
2023/01/22 00:36:11;;;;;;;59.60;39.75;;;27.00;99.90;;;;;;5080008;28;20012;-73
2023/01/22 00:38:37;;;;;;;63.47;40.88;;;27.00;99.90;;;;;;5080378;28;20025;-71
2023/01/22 00:41:06;;;;;;;58.50;41.50;;;27.00;99.90;;;;;;5074792;28;20381;-69
2023/01/22 00:43:34;;;;;;;64.10;40.95;;;27.10;99.90;;;;;;5069592;28;20020;-72
2023/01/22 00:46:01;;;;;;;58.47;41.35;;;27.10;99.90;;;;;;5074989;28;20032;-74
2023/01/22 00:48:28;;;;;;;69.45;45.60;;;27.20;99.90;;;;;;5069795;28;20049;-68
2023/01/22 00:50:54;;;;;;;67.50;48.65;;;27.20;99.90;;;;;;5079961;28;20013;-72
2023/01/22 00:53:21;;;;;;;63.80;43.28;;;27.20;99.90;;;;;;5089711;28;20107;-73
2023/01/22 00:56:07;;;;;;;64.25;43.63;;;27.30;99.90;;;;;;5089275;28;20052;-73
2023/01/22 00:58:34;;;;;;;66.38;45.88;;;27.30;99.90;;;;;;5088973;28;20107;-74
2023/01/22 01:01:01;;;;;;;59.20;43.25;;;27.30;99.90;;;;;;5075528;28;20028;-76
2023/01/22 01:03:30;;;;;;;49.47;36.13;;;27.30;99.90;;;;;;5075998;28;20020;-71
2023/01/22 01:05:58;;;;;;;45.95;33.88;;;27.20;99.90;;;;;;5072885;28;20060;-73
2023/01/22 01:08:26;;;;;;;46.15;32.33;;;27.20;99.90;;;;;;5055811;28;20489;-71
2023/01/22 01:10:57;;;;;;;44.33;32.67;;;27.20;99.90;;;;;;5058509;28;20025;-74
2023/01/22 01:13:25;;;;;;;38.67;28.65;;;27.40;99.90;;;;;;5055945;28;20028;-75
2023/01/22 01:16:13;;;;;;;31.23;25.15;;;27.40;99.90;;;;;;5054583;28;20024;-72
2023/01/22 01:18:40;;;;;;;33.22;23.65;;;27.40;99.90;;;;;;5053868;28;20017;-75
2023/01/22 01:21:07;;;;;;;47.83;35.22;;;27.40;99.90;;;;;;5053547;28;20473;-74
2023/01/22 01:23:34;;;;;;;32.08;26.48;;;27.50;99.90;;;;;;5053633;28;20033;-72
2023/01/22 01:26:05;;;;;;;33.30;25.48;;;27.50;99.90;;;;;;5053720;28;20107;-76
2023/01/22 01:28:33;;;;;;;27.17;22.40;;;27.50;99.90;;;;;;5053637;28;20025;-74
2023/01/22 01:31:03;;;;;;;29.02;23.98;;;27.40;99.90;;;;;;5054583;28;20099;-78
2023/01/22 01:33:30;;;;;;;30.02;23.80;;;27.70;99.90;;;;;;5055717;28;20029;-78
2023/01/22 01:36:00;;;;;;;32.20;22.98;;;27.50;99.90;;;;;;5055529;28;20025;-75
2023/01/22 01:38:27;;;;;;;23.73;19.90;;;27.80;99.90;;;;;;5055273;28;20025;-77
2023/01/22 01:40:53;;;;;;;29.25;19.98;;;27.60;99.90;;;;;;5055007;28;20500;-74
2023/01/22 01:43:20;;;;;;;31.60;20.98;;;27.80;99.90;;;;;;5055305;28;20049;-73
2023/01/22 01:45:46;;;;;;;28.45;19.98;;;27.70;99.90;;;;;;5055171;28;20025;-77
2023/01/22 01:48:44;;;;;;;59.40;42.42;;;27.60;99.90;;;;;;5054828;28;20041;-72
2023/01/22 01:51:17;;;;;;;49.47;39.65;;;27.70;99.90;;;;;;5053817;28;20452;-77
2023/01/22 01:53:47;;;;;;;66.25;56.97;;;27.70;99.90;;;;;;5055078;28;20100;-74
2023/01/22 01:56:19;;;;;;;90.68;75.82;;;27.70;99.90;;;;;;5054858;28;20478;-78
2023/01/22 01:58:47;;;;;;;54.50;48.67;;;27.70;99.90;;;;;;5054662;28;20047;-73
2023/01/22 02:01:17;;;;;;;87.55;78.22;;;27.70;99.90;;;;;;5054954;28;20033;-74
2023/01/22 02:03:45;;;;;;;29.58;24.23;;;27.70;99.90;;;;;;5054876;28;20028;-73
2023/01/22 02:06:15;;;;;;;32.30;26.70;;;27.80;99.90;;;;;;5054844;28;20123;-73
2023/01/22 02:08:46;;;;;;;25.85;18.27;;;27.80;99.90;;;;;;5054751;28;20154;-74
2023/01/22 02:11:14;;;;;;;32.95;23.30;;;27.80;99.90;;;;;;5053550;28;20443;-73
2023/01/22 02:13:48;;;;;;;32.80;20.60;;;27.80;99.90;;;;;;5053432;28;20036;-79
2023/01/22 02:16:15;;;;;;;33.40;24.08;;;27.90;99.90;;;;;;5054563;28;20017;-78
2023/01/22 02:18:41;;;;;;;31.10;19.92;;;27.90;99.90;;;;;;5054651;28;20412;-72
2023/01/22 02:21:29;;;;;;;27.20;20.17;;;27.90;99.90;;;;;;5054655;28;20025;-73
2023/01/22 02:23:56;;;;;;;20.63;14.07;;;27.90;99.90;;;;;;5054517;28;20035;-73
2023/01/22 02:26:22;;;;;;;20.25;12.18;;;28.00;99.90;;;;;;5057035;28;20032;-73
2023/01/22 02:28:49;;;;;;;19.02;11.73;;;28.10;99.90;;;;;;5062443;28;20017;-73
2023/01/22 02:31:15;;;;;;;15.82;12.00;;;28.20;99.90;;;;;;5054500;28;20108;-73
2023/01/22 02:33:42;;;;;;;23.48;13.25;;;28.30;99.90;;;;;;5054309;28;20029;-75
2023/01/22 02:36:09;;;;;;;18.63;13.70;;;28.40;99.90;;;;;;5054210;28;20078;-73
2023/01/22 02:38:35;;;;;;;16.80;11.05;;;28.60;99.90;;;;;;5053906;28;20056;-73
2023/01/22 02:41:02;;;;;;;20.63;13.18;;;28.60;99.90;;;;;;5054218;28;20489;-73
2023/01/22 02:43:28;;;;;;;20.75;15.32;;;28.60;99.90;;;;;;5054081;28;20021;-74
2023/01/22 02:45:55;;;;;;;14.10;10.23;;;28.60;99.90;;;;;;5052793;28;20268;-71
2023/01/22 02:48:22;;;;;;;15.05;10.60;;;28.60;99.90;;;;;;5054115;28;20398;-66
2023/01/22 02:50:48;;;;;;;19.75;13.15;;;28.60;99.90;;;;;;5053999;28;20021;-70
2023/01/22 02:53:14;;;;;;;19.83;12.23;;;28.70;99.90;;;;;;5053913;28;20575;-65
2023/01/22 02:55:43;;;;;;;12.70;7.90;;;28.70;99.90;;;;;;5053950;28;20032;-66
2023/01/22 02:58:10;;;;;;;12.32;8.02;;;28.70;99.90;;;;;;5053871;28;20036;-69
2023/01/22 03:00:36;;;;;;;16.98;8.98;;;28.70;99.90;;;;;;5053778;28;20028;-68
2023/01/22 03:03:06;;;;;;;37.50;23.23;;;28.80;99.90;;;;;;5070070;28;20393;-67
2023/01/22 03:05:34;;;;;;;23.63;15.43;;;28.80;99.90;;;;;;5073958;28;20392;-67
2023/01/22 03:08:00;;;;;;;15.90;11.18;;;28.80;99.90;;;;;;5073808;28;20033;-69
2023/01/22 03:10:27;;;;;;;9.57;6.72;;;28.90;99.90;;;;;;5073745;28;20461;-68
2023/01/22 03:21:14;;;;;;;11.57;8.65;;;28.90;99.90;;;;;;5011649;28;20030;-67
2023/01/22 03:23:45;;;;;;;23.52;15.15;;;28.80;99.90;;;;;;5058003;28;20037;-70
2023/01/22 03:26:11;;;;;;;19.88;12.48;;;28.90;99.90;;;;;;5073248;28;20037;-68
2023/01/22 03:28:38;;;;;;;19.80;10.60;;;28.80;99.90;;;;;;5073926;28;20366;-70
2023/01/22 03:31:05;;;;;;;12.10;8.18;;;28.90;99.90;;;;;;5072973;28;20346;-68
2023/01/22 03:33:32;;;;;;;9.93;6.35;;;28.80;99.90;;;;;;5073442;28;20465;-67
2023/01/22 03:36:09;;;;;;;11.43;6.35;;;28.80;99.90;;;;;;5073412;28;20020;-66
2023/01/22 03:38:35;;;;;;;11.63;6.85;;;28.80;99.90;;;;;;5073602;28;20473;-66
2023/01/22 03:41:09;;;;;;;16.05;6.07;;;28.80;99.90;;;;;;5073337;28;20106;-67
2023/01/22 03:43:36;;;;;;;12.73;6.78;;;28.80;99.90;;;;;;5066585;28;20036;-67
2023/01/22 03:46:06;;;;;;;10.85;6.13;;;28.80;99.90;;;;;;5061439;28;20051;-66
2023/01/22 03:48:33;;;;;;;10.95;6.43;;;28.80;99.90;;;;;;5053041;28;20077;-66
2023/01/22 03:51:19;;;;;;;12.55;6.85;;;28.90;99.90;;;;;;5053019;28;20018;-67
2023/01/22 03:53:46;;;;;;;9.45;6.28;;;29.00;99.90;;;;;;5053235;28;20032;-67
2023/01/22 03:56:22;;;;;;;10.27;6.60;;;29.00;99.90;;;;;;5053030;28;20071;-66
2023/01/22 03:58:49;;;;;;;8.52;6.25;;;29.00;99.90;;;;;;5053238;28;20021;-72
2023/01/22 04:01:18;;;;;;;9.98;6.00;;;29.20;99.90;;;;;;5053051;28;20033;-73
2023/01/22 04:03:45;;;;;;;12.10;5.88;;;29.20;99.90;;;;;;5055144;28;20384;-66
2023/01/22 04:06:12;;;;;;;8.48;6.22;;;29.20;99.90;;;;;;5061776;28;20021;-69
2023/01/22 04:08:41;;;;;;;10.85;7.63;;;29.20;99.90;;;;;;5052986;28;20021;-66
2023/01/22 04:11:08;;;;;;;9.73;7.63;;;29.20;99.90;;;;;;5052917;28;20108;-66
2023/01/22 04:13:36;;;;;;;11.95;7.05;;;29.10;99.90;;;;;;5052545;28;20029;-67
2023/01/22 04:16:03;;;;;;;11.80;9.00;;;29.10;99.90;;;;;;5052939;28;20036;-66
2023/01/22 04:18:30;;;;;;;16.20;10.00;;;29.10;99.90;;;;;;5055349;28;20629;-71
2023/01/22 04:20:57;;;;;;;13.20;9.75;;;29.20;99.90;;;;;;5063653;28;20021;-68
2023/01/22 04:23:24;;;;;;;14.43;10.85;;;29.20;99.90;;;;;;5061739;28;20074;-66
2023/01/22 04:25:51;;;;;;;13.90;9.63;;;29.20;99.90;;;;;;5061063;28;20595;-67
2023/01/22 04:28:18;;;;;;;16.05;8.93;;;29.10;99.90;;;;;;5060760;28;20032;-68
2023/01/22 04:30:46;;;;;;;18.48;9.07;;;29.00;99.90;;;;;;5058014;28;20021;-66
2023/01/22 04:33:13;;;;;;;11.13;8.02;;;29.00;99.90;;;;;;5053943;28;20036;-67
2023/01/22 04:35:41;;;;;;;15.77;10.60;;;28.90;99.90;;;;;;5056439;28;20066;-66
2023/01/22 04:38:11;;;;;;;17.45;11.55;;;28.90;99.90;;;;;;5057440;28;20067;-70
2023/01/22 04:40:38;;;;;;;15.88;11.02;;;28.90;99.90;;;;;;5064304;28;20158;-71
2023/01/22 04:43:06;;;;;;;18.52;11.60;;;28.90;99.90;;;;;;5065504;28;20017;-73
2023/01/22 04:45:33;;;;;;;17.25;11.77;;;28.90;99.90;;;;;;5064238;28;20033;-71
2023/01/22 04:48:00;;;;;;;17.77;12.88;;;28.90;99.90;;;;;;5066062;28;20262;-71
2023/01/22 04:50:30;;;;;;;18.10;12.20;;;29.00;99.90;;;;;;5065757;28;20017;-72
2023/01/22 04:52:57;;;;;;;15.65;11.80;;;29.00;99.90;;;;;;5064221;28;20026;-71
2023/01/22 04:55:24;;;;;;;14.70;12.60;;;29.00;99.90;;;;;;5065249;28;20415;-72
2023/01/22 04:57:55;;;;;;;20.27;14.10;;;29.10;99.90;;;;;;5066131;28;20060;-69
2023/01/22 05:00:22;;;;;;;22.95;14.13;;;29.10;99.90;;;;;;5064264;28;20096;-71
2023/01/22 05:02:49;;;;;;;20.92;14.80;;;29.10;99.90;;;;;;5065749;28;20024;-68
2023/01/22 05:05:15;;;;;;;24.27;15.52;;;29.20;99.90;;;;;;5066044;28;20020;-72
2023/01/22 05:07:42;;;;;;;23.08;15.38;;;29.20;99.90;;;;;;5064641;28;20023;-70
2023/01/22 05:10:09;;;;;;;23.08;16.30;;;29.20;99.90;;;;;;5064572;28;20016;-71
2023/01/22 05:12:35;;;;;;;45.45;18.13;;;29.20;99.90;;;;;;5065905;28;20461;-72
2023/01/22 05:15:02;;;;;;;24.27;15.57;;;29.20;99.90;;;;;;5064372;28;20017;-71
2023/01/22 05:17:29;;;;;;;20.00;15.25;;;29.40;99.90;;;;;;5064739;28;20732;-72
2023/01/22 05:19:55;;;;;;;22.02;15.70;;;29.30;99.90;;;;;;5065685;28;20012;-73
2023/01/22 05:22:22;;;;;;;21.25;14.88;;;29.40;99.90;;;;;;5064454;28;20017;-73
2023/01/22 05:24:48;;;;;;;18.10;14.55;;;29.30;99.90;;;;;;5064314;28;20024;-72
2023/01/22 05:27:15;;;;;;;17.25;12.77;;;29.50;99.90;;;;;;5065737;28;20009;-72
2023/01/22 05:29:41;;;;;;;22.13;14.63;;;29.30;99.90;;;;;;5066983;28;20028;-75
2023/01/22 05:32:08;;;;;;;23.27;14.82;;;29.40;99.90;;;;;;5073362;28;20038;-72
2023/01/22 05:34:35;;;;;;;25.10;16.55;;;29.30;99.90;;;;;;5066331;28;20078;-72
2023/01/22 05:37:01;;;;;;;17.52;14.57;;;29.40;99.90;;;;;;5055536;28;20097;-71
2023/01/22 05:39:28;;;;;;;17.00;14.23;;;29.50;99.90;;;;;;5055250;28;20028;-76
2023/01/22 05:41:54;;;;;;;28.10;15.52;;;29.50;99.90;;;;;;5055280;28;20029;-77
2023/01/22 05:44:21;;;;;;;17.25;10.70;;;29.60;99.90;;;;;;5055378;28;20491;-72
2023/01/22 05:46:47;;;;;;;16.40;11.63;;;29.60;99.90;;;;;;5055055;28;20056;-73
2023/01/22 05:49:14;;;;;;;13.32;10.23;;;29.70;99.90;;;;;;5072551;28;20374;-73
2023/01/22 05:51:40;;;;;;;14.77;10.75;;;29.80;99.90;;;;;;5075309;28;20452;-73
2023/01/22 05:54:07;;;;;;;127.15;91.07;;;29.90;99.90;;;;;;5075111;28;20021;-72
2023/01/22 05:56:33;;;;;;;71.55;54.10;;;29.90;99.90;;;;;;5075244;28;20020;-72
2023/01/22 05:59:00;;;;;;;60.83;42.53;;;30.00;99.90;;;;;;5075071;28;20094;-73
2023/01/22 06:01:26;;;;;;;29.90;22.27;;;30.00;99.90;;;;;;5065621;28;20025;-73
2023/01/22 06:03:54;;;;;;;20.20;13.40;;;30.20;99.90;;;;;;5054950;28;20052;-72
2023/01/22 06:06:20;;;;;;;29.52;21.65;;;30.10;99.90;;;;;;5070249;28;20475;-73
2023/01/22 06:08:51;;;;;;;48.53;30.80;;;30.20;99.90;;;;;;5065440;28;20029;-74
2023/01/22 06:11:17;;;;;;;28.75;21.23;;;30.20;99.90;;;;;;5055015;28;20028;-73
2023/01/22 06:13:44;;;;;;;16.48;12.73;;;30.30;99.90;;;;;;5054802;28;20545;-74
2023/01/22 06:16:11;;;;;;;20.48;15.98;;;30.30;99.90;;;;;;5054470;28;20115;-76
2023/01/22 06:18:37;;;;;;;31.00;25.27;;;30.30;99.90;;;;;;5054594;28;20489;-72
2023/01/22 06:21:06;;;;;;;15.82;11.10;;;30.40;99.90;;;;;;5073367;28;20078;-73
2023/01/22 06:23:33;;;;;;;12.32;8.52;;;30.40;99.90;;;;;;5074420;28;20116;-72
2023/01/22 06:26:01;;;;;;;16.70;8.55;;;30.30;99.90;;;;;;5074517;28;20025;-72
2023/01/22 06:28:28;;;;;;;9.80;8.15;;;30.40;99.90;;;;;;5055299;28;20155;-69
2023/01/22 06:31:06;;;;;;;12.45;9.77;;;30.40;99.90;;;;;;5054370;28;20108;-65
2023/01/22 06:33:36;;;;;;;12.27;10.25;;;30.50;99.90;;;;;;5054013;28;20051;-70
2023/01/22 06:36:04;;;;;;;24.23;17.20;;;30.50;99.90;;;;;;5062960;28;20024;-69
2023/01/22 06:38:31;;;;;;;59.63;40.83;;;30.50;99.90;;;;;;5064218;28;20033;-67
2023/01/22 06:40:58;;;;;;;36.15;25.90;;;30.50;99.90;;;;;;5061806;28;20025;-68
2023/01/22 06:43:26;;;;;;;16.90;12.98;;;30.50;99.90;;;;;;5062641;28;20032;-68
2023/01/22 06:45:54;;;;;;;17.92;11.68;;;30.50;99.90;;;;;;5063793;28;20035;-69
2023/01/22 06:48:20;;;;;;;13.23;8.63;;;30.50;99.90;;;;;;5061854;28;20548;-72
2023/01/22 06:50:47;;;;;;;11.98;8.90;;;30.60;99.90;;;;;;5062502;28;20468;-72
2023/01/22 06:53:13;;;;;;;15.25;8.85;;;30.60;99.90;;;;;;5063897;28;20017;-71
2023/01/22 06:55:40;;;;;;;11.07;8.73;;;30.60;99.90;;;;;;5061920;28;20024;-72
2023/01/22 06:58:06;;;;;;;12.55;8.15;;;30.60;99.90;;;;;;5061155;28;20024;-70
2023/01/22 07:00:33;;;;;;;11.68;7.90;;;30.60;99.90;;;;;;5064664;28;20472;-71
2023/01/22 07:02:59;;;;;;;20.45;9.68;;;30.60;99.90;;;;;;5058027;28;20058;-71
2023/01/22 07:05:26;;;;;;;17.70;11.20;;;30.60;99.90;;;;;;5053758;28;20028;-70
2023/01/22 07:07:54;;;;;;;12.82;9.50;;;30.50;99.90;;;;;;5053532;28;20108;-70
2023/01/22 07:10:21;;;;;;;16.52;12.07;;;30.40;99.90;;;;;;5053658;28;20102;-70
2023/01/22 07:12:49;;;;;;;15.60;12.27;;;30.30;99.90;;;;;;5053579;28;20032;-71
2023/01/22 07:15:15;;;;;;;17.27;11.77;;;30.20;99.90;;;;;;5053738;28;20025;-71
2023/01/22 07:17:42;;;;;;;14.18;10.23;;;30.00;99.90;;;;;;5055761;28;20087;-68
2023/01/22 07:20:09;;;;;;;11.75;8.77;;;29.90;99.90;;;;;;5072659;28;20060;-71
2023/01/22 07:22:35;;;;;;;14.20;9.73;;;29.70;99.90;;;;;;5073258;28;20070;-71
2023/01/22 07:25:02;;;;;;;17.10;8.57;;;29.70;99.90;;;;;;5073477;28;20060;-70
2023/01/22 07:27:31;;;;;;;13.43;7.53;;;29.60;99.90;;;;;;5073281;28;20486;-70
2023/01/22 07:29:58;;;;;;;14.73;8.30;;;29.60;99.90;;;;;;5070942;28;20029;-70
2023/01/22 07:32:24;;;;;;;12.55;7.22;;;29.60;99.90;;;;;;5054241;28;20021;-74
2023/01/22 07:34:51;;;;;;;21.10;10.52;;;29.50;99.90;;;;;;5059075;28;20048;-70
2023/01/22 07:37:20;;;;;;;16.00;9.35;;;29.50;99.90;;;;;;5073148;28;20481;-70
2023/01/22 07:39:46;;;;;;;12.63;7.88;;;29.50;99.90;;;;;;5064893;28;20021;-70
2023/01/22 07:42:13;;;;;;;15.50;8.90;;;29.40;99.90;;;;;;5063393;28;20179;-70
2023/01/22 07:44:39;;;;;;;12.48;7.90;;;29.30;99.90;;;;;;5060265;28;20355;-71
2023/01/22 07:47:06;;;;;;;12.40;7.18;;;29.30;99.90;;;;;;5062140;28;20099;-70
2023/01/22 07:49:33;;;;;;;16.38;7.60;;;29.30;99.90;;;;;;5063179;28;20072;-69
2023/01/22 07:52:00;;;;;;;11.88;8.57;;;29.30;99.90;;;;;;5061429;28;20021;-67
2023/01/22 07:54:26;;;;;;;7.30;6.38;;;29.40;99.90;;;;;;5062115;28;20023;-67
2023/01/22 07:56:53;;;;;;;15.00;9.30;;;29.30;99.90;;;;;;5063310;28;20076;-68
2023/01/22 07:59:19;;;;;;;13.88;10.88;;;29.30;99.90;;;;;;5061105;28;20535;-69
2023/01/22 08:01:46;;;;;;;11.68;8.88;;;29.40;99.90;;;;;;5062056;28;20028;-69
2023/01/22 08:04:12;;;;;;;19.35;12.52;;;29.50;99.90;;;;;;5060053;28;20024;-68
2023/01/22 08:06:39;;;;;;;28.98;18.67;;;29.50;99.90;;;;;;5061359;28;20120;-68
2023/01/22 08:09:06;;;;;;;45.05;32.70;;;29.60;99.90;;;;;;5062405;28;20334;-70
2023/01/22 08:11:32;;;;;;;103.15;72.63;;;29.70;99.90;;;;;;5067196;28;20039;-68
2023/01/22 08:13:59;;;;;;;83.65;60.78;;;29.70;99.90;;;;;;5065354;28;20201;-70
2023/01/22 08:16:25;;;;;;;33.33;25.20;;;29.80;99.90;;;;;;5073784;28;20126;-69
2023/01/22 08:18:52;;;;;;;19.73;14.38;;;29.80;99.90;;;;;;5076956;28;20028;-71
2023/01/22 08:21:19;;;;;;;37.70;24.63;;;29.80;99.90;;;;;;5064990;28;20037;-70
2023/01/22 08:23:46;;;;;;;38.33;26.65;;;29.90;99.90;;;;;;5056867;28;20028;-70
2023/01/22 08:26:13;;;;;;;58.60;38.50;;;29.90;99.90;;;;;;5056696;28;20029;-69
2023/01/22 08:28:39;;;;;;;28.73;19.90;;;29.90;99.90;;;;;;5056652;28;20021;-68
2023/01/22 08:31:06;;;;;;;22.30;15.85;;;29.90;99.90;;;;;;5056691;28;20336;-69
2023/01/22 08:33:33;;;;;;;30.73;20.40;;;30.00;99.90;;;;;;5056678;28;20039;-68
2023/01/22 08:36:00;;;;;;;23.60;17.55;;;30.00;99.90;;;;;;5056679;28;20024;-70
2023/01/22 08:38:26;;;;;;;22.30;14.98;;;30.00;99.90;;;;;;5056404;28;20100;-70
2023/01/22 08:40:53;;;;;;;27.67;19.55;;;30.00;99.90;;;;;;5062568;28;20429;-68
2023/01/22 08:43:20;;;;;;;31.08;21.38;;;30.00;99.90;;;;;;5060450;28;20027;-69
2023/01/22 08:45:48;;;;;;;41.42;32.50;;;30.00;99.90;;;;;;5056343;28;20028;-69
2023/01/22 08:48:15;;;;;;;31.98;25.20;;;30.00;99.90;;;;;;5056237;28;20037;-69
2023/01/22 08:50:42;;;;;;;29.83;20.27;;;30.00;99.90;;;;;;5056629;28;20029;-69
2023/01/22 08:53:08;;;;;;;26.35;16.67;;;30.00;99.90;;;;;;5056511;28;20408;-69
2023/01/22 08:55:35;;;;;;;26.13;15.32;;;30.00;99.90;;;;;;5056325;28;20021;-70
2023/01/22 08:58:01;;;;;;;28.35;14.38;;;30.00;99.90;;;;;;5056119;28;20025;-68
2023/01/22 09:00:28;;;;;;;30.52;16.70;;;29.90;99.90;;;;;;5056099;28;20025;-70
2023/01/22 09:02:58;;;;;;;28.58;18.58;;;30.00;99.90;;;;;;5056443;28;20028;-71
2023/01/22 09:05:26;;;;;;;34.22;19.33;;;29.90;99.90;;;;;;5056005;28;20037;-70
2023/01/22 09:07:52;;;;;;;37.22;19.00;;;29.90;99.90;;;;;;5055844;28;20067;-70
2023/01/22 09:10:19;;;;;;;90.78;62.15;;;29.80;99.90;;;;;;5055927;28;20458;-68
2023/01/22 09:12:45;;;;;;;58.20;35.10;;;29.80;99.90;;;;;;5064726;28;20385;-71
2023/01/22 09:15:12;;;;;;;39.60;21.85;;;29.70;99.90;;;;;;5064176;28;20044;-69
2023/01/22 09:17:41;;;;;;;25.95;17.65;;;29.70;99.90;;;;;;5063838;28;20588;-70
2023/01/22 09:20:08;;;;;;;36.20;24.92;;;29.70;99.90;;;;;;5064420;28;20483;-70
2023/01/22 09:22:34;;;;;;;33.15;20.73;;;29.70;99.90;;;;;;5065748;28;20094;-70
2023/01/22 09:25:01;;;;;;;27.45;20.00;;;29.70;99.90;;;;;;5055741;28;20036;-71
2023/01/22 09:27:27;;;;;;;29.45;21.25;;;29.70;99.90;;;;;;5055614;28;20021;-77
2023/01/22 09:29:54;;;;;;;30.77;19.92;;;29.70;99.90;;;;;;5059217;28;20504;-70
2023/01/22 09:32:20;;;;;;;29.55;20.45;;;29.70;99.90;;;;;;5075658;28;20029;-70
2023/01/22 09:34:47;;;;;;;26.55;17.02;;;29.70;99.90;;;;;;5075645;28;20478;-70
2023/01/22 09:37:14;;;;;;;26.60;18.50;;;29.70;99.90;;;;;;5068827;28;20052;-70
2023/01/22 09:39:40;;;;;;;32.33;21.13;;;29.70;99.90;;;;;;5075604;28;20027;-69
2023/01/22 09:42:16;;;;;;;31.00;20.83;;;29.70;99.90;;;;;;5075394;28;20021;-70
2023/01/22 09:44:47;;;;;;;26.42;20.08;;;29.70;99.90;;;;;;5075271;28;20105;-68
2023/01/22 09:47:19;;;;;;;29.92;19.33;;;29.70;99.90;;;;;;5070169;28;20056;-71
2023/01/22 09:49:47;;;;;;;29.80;21.27;;;29.70;99.90;;;;;;5070887;28;20036;-70
2023/01/22 09:52:14;;;;;;;27.50;20.77;;;29.70;99.90;;;;;;5055101;28;20100;-69
2023/01/22 09:54:42;;;;;;;30.73;21.15;;;29.70;99.90;;;;;;5055085;28;20021;-70
2023/01/22 09:57:14;;;;;;;39.55;21.23;;;29.70;99.90;;;;;;5058844;28;20474;-71
2023/01/22 09:59:50;;;;;;;32.40;20.60;;;29.70;99.90;;;;;;5075010;28;20481;-71
2023/01/22 10:02:34;;;;;;;25.60;16.98;;;29.70;99.90;;;;;;5075015;28;20425;-71
2023/01/22 10:05:12;;;;;;;25.52;17.30;;;29.70;99.90;;;;;;5074847;28;20024;-70
2023/01/22 10:07:43;;;;;;;19.65;14.88;;;29.80;99.90;;;;;;5074145;28;20107;-70
2023/01/22 10:10:25;;;;;;;26.92;14.15;;;29.80;99.90;;;;;;5074821;28;20020;-71
2023/01/22 10:13:22;;;;;;;22.50;17.45;;;29.80;99.90;;;;;;5074628;28;20473;-70
2023/01/22 10:15:51;;;;;;;25.83;19.90;;;29.80;99.90;;;;;;5074699;28;20074;-72
2023/01/22 10:18:24;;;;;;;33.20;21.10;;;29.80;99.90;;;;;;5074522;28;20374;-70
2023/01/22 10:20:53;;;;;;;32.13;21.80;;;29.80;99.90;;;;;;5074509;28;20499;-69
2023/01/22 10:23:24;;;;;;;31.10;22.13;;;29.80;99.90;;;;;;5074572;28;20040;-70
2023/01/22 10:25:58;;;;;;;33.45;21.25;;;29.80;99.90;;;;;;5074306;28;20121;-70
2023/01/22 10:28:27;;;;;;;35.03;22.58;;;29.80;99.90;;;;;;5074422;28;20026;-70
2023/01/22 10:30:57;;;;;;;38.67;23.65;;;29.80;99.90;;;;;;5074268;28;20384;-69
2023/01/22 10:33:26;;;;;;;38.13;24.02;;;29.80;99.90;;;;;;5073316;28;20028;-70
2023/01/22 10:35:55;;;;;;;32.35;20.73;;;29.80;99.90;;;;;;5074225;28;20027;-70
2023/01/22 10:38:24;;;;;;;27.55;20.27;;;29.80;99.90;;;;;;5074127;28;20490;-70
2023/01/22 10:40:56;;;;;;;34.22;22.08;;;29.80;99.90;;;;;;5074215;28;20024;-70
2023/01/22 10:43:30;;;;;;;27.27;20.65;;;29.80;99.90;;;;;;5074119;28;20070;-68
2023/01/22 10:46:21;;;;;;;29.23;21.10;;;29.80;99.90;;;;;;5074289;28;20032;-69
2023/01/22 10:49:00;;;;;;;33.33;20.17;;;29.80;99.90;;;;;;5073672;28;20040;-69
2023/01/22 10:51:41;;;;;;;50.17;32.45;;;29.80;99.90;;;;;;5074168;28;20028;-69
2023/01/22 10:54:38;;;;;;;54.42;37.20;;;29.80;99.90;;;;;;5073783;28;20034;-70
2023/01/22 10:57:12;;;;;;;43.63;31.58;;;29.70;99.90;;;;;;5073627;28;20054;-69
2023/01/22 10:59:39;;;;;;;46.92;30.75;;;29.70;99.90;;;;;;5073946;28;20100;-69
2023/01/22 11:02:22;;;;;;;46.47;31.25;;;29.70;99.90;;;;;;5070630;28;20025;-68
2023/01/22 11:04:50;;;;;;;55.40;34.88;;;29.70;99.90;;;;;;5065828;28;20029;-69
2023/01/22 11:07:19;;;;;;;60.50;37.65;;;29.60;99.90;;;;;;5067627;28;20383;-69
2023/01/22 11:10:01;;;;;;;58.50;38.00;;;29.60;99.90;;;;;;5058356;28;20027;-68
2023/01/22 11:12:44;;;;;;;58.42;37.20;;;29.70;99.90;;;;;;5077129;28;20108;-68
2023/01/22 11:15:35;;;;;;;58.60;39.83;;;29.60;99.90;;;;;;5061957;28;20382;-68
2023/01/22 11:18:05;;;;;;;67.90;44.28;;;29.60;99.90;;;;;;5053637;28;20036;-69
2023/01/22 11:20:32;;;;;;;103.45;67.03;;;29.50;99.90;;;;;;5053492;28;20040;-70
2023/01/22 11:23:05;;;;;;;110.65;71.93;;;29.50;99.90;;;;;;5056572;28;20028;-69
2023/01/22 11:25:41;;;;;;;71.05;45.28;;;29.40;99.90;;;;;;5060413;28;20020;-68
2023/01/22 11:28:20;;;;;;;52.03;35.97;;;29.40;99.90;;;;;;5071489;28;20021;-70
2023/01/22 11:31:02;;;;;;;70.88;44.25;;;29.30;99.90;;;;;;5073348;28;20036;-69
2023/01/22 11:33:29;;;;;;;57.10;32.72;;;29.20;99.90;;;;;;5072995;28;20020;-72
2023/01/22 11:36:15;;;;;;;39.22;22.00;;;29.20;99.90;;;;;;5080804;28;20091;-70
2023/01/22 11:39:00;;;;;;;40.00;19.77;;;29.20;99.90;;;;;;5093436;28;20473;-67
2023/01/22 11:41:35;;;;;;;27.60;18.00;;;29.10;99.90;;;;;;5072130;28;20032;-70
2023/01/22 11:44:41;;;;;;;25.55;15.60;;;29.00;99.90;;;;;;5059789;28;20358;-68
2023/01/22 11:47:38;;;;;;;26.02;16.00;;;29.00;99.90;;;;;;5060720;28;20032;-69
2023/01/22 11:50:16;;;;;;;19.98;11.77;;;28.80;99.90;;;;;;5069021;28;20481;-69
2023/01/22 11:52:46;;;;;;;14.95;10.82;;;28.70;99.90;;;;;;5061574;28;20024;-70
2023/01/22 11:55:42;;;;;;;25.40;11.70;;;28.60;99.90;;;;;;5060226;28;20510;-68
2023/01/22 11:58:16;;;;;;;18.38;11.60;;;28.60;99.90;;;;;;5061995;28;20033;-70
2023/01/22 12:00:46;;;;;;;15.48;10.45;;;28.60;99.90;;;;;;5057842;28;20078;-73
2023/01/22 12:03:33;;;;;;;18.38;9.43;;;28.70;99.90;;;;;;5062021;28;20096;-73
2023/01/22 12:06:18;;;;;;;18.48;10.43;;;28.60;99.90;;;;;;5056695;28;20390;-71
2023/01/22 12:08:49;;;;;;;20.10;10.45;;;28.60;99.90;;;;;;5053912;28;20115;-72
2023/01/22 12:11:30;;;;;;;21.48;11.00;;;28.70;99.90;;;;;;5053019;28;20024;-73
2023/01/22 12:14:00;;;;;;;19.95;12.65;;;28.60;99.90;;;;;;5056126;28;20029;-72
2023/01/22 12:16:37;;;;;;;19.45;12.60;;;28.70;99.90;;;;;;5052225;28;20377;-72
2023/01/22 12:19:17;;;;;;;17.58;14.10;;;28.60;99.90;;;;;;5052550;28;20017;-74
2023/01/22 12:21:44;;;;;;;21.90;13.30;;;28.60;99.90;;;;;;5065941;28;20036;-73
2023/01/22 12:24:38;;;;;;;24.20;14.80;;;28.60;99.90;;;;;;5068111;28;20107;-73
2023/01/22 12:27:13;;;;;;;18.30;10.25;;;28.50;99.90;;;;;;5063766;28;21039;-74
2023/01/22 12:29:45;;;;;;;22.10;10.57;;;28.30;99.90;;;;;;5062661;28;20032;-71
2023/01/22 12:32:14;;;;;;;16.40;9.40;;;28.30;99.90;;;;;;5055932;28;20032;-72
2023/01/22 12:35:05;;;;;;;15.05;7.35;;;28.30;99.90;;;;;;5058710;28;20090;-72
2023/01/22 12:37:46;;;;;;;9.77;6.18;;;28.20;99.90;;;;;;5059795;28;20033;-71
2023/01/22 12:40:28;;;;;;;12.02;6.78;;;28.20;99.90;;;;;;5061756;28;20021;-68
2023/01/22 12:43:04;;;;;;;7.70;6.03;;;28.10;99.90;;;;;;5061240;28;20017;-71
2023/01/22 12:46:10;;;;;;;11.90;5.72;;;28.10;99.90;;;;;;5060472;28;20063;-71
2023/01/22 12:48:56;;;;;;;8.68;5.05;;;28.10;99.90;;;;;;5059582;28;20071;-70
2023/01/22 12:51:34;;;;;;;12.02;5.55;;;28.10;99.90;;;;;;5062408;28;20092;-70